createdAt,value
2019-05-13T00:04:24.115Z,59.30
2019-05-13T00:06:55.180Z,59.68
2019-05-13T00:09:20.752Z,59.96
2019-05-13T00:12:07.157Z,60.11
2019-05-13T00:14:56.215Z,60.32
2019-05-13T00:17:44.624Z,60.21
2019-05-13T00:20:14.095Z,60.21
2019-05-13T00:22:41.308Z,60.71
2019-05-13T00:25:27.745Z,61.00
2019-05-13T00:28:14.566Z,60.68
2019-05-13T00:33:48.944Z,60.50
2019-05-13T00:36:17.145Z,60.59
2019-05-13T00:38:44.759Z,60.59
2019-05-13T00:41:33.180Z,60.51
2019-05-13T00:44:00.798Z,60.51
2019-05-13T00:46:47.891Z,60.53
2019-05-13T00:49:17.205Z,60.53
2019-05-13T00:52:04.078Z,61.28
2019-05-13T00:54:34.156Z,61.28
2019-05-13T00:59:54.966Z,60.70
2019-05-13T01:02:41.327Z,60.79
2019-05-13T01:05:28.047Z,61.05
2019-05-13T01:08:14.780Z,61.17
2019-05-13T01:10:45.216Z,61.17
2019-05-13T01:13:34.053Z,61.98
2019-05-13T01:16:20.147Z,62.27
2019-05-13T01:19:06.540Z,61.73
2019-05-13T01:21:34.608Z,61.73
2019-05-13T01:24:03.970Z,62.20
2019-05-13T01:26:33.908Z,62.37
2019-05-13T01:29:23.818Z,62.50
2019-05-13T01:34:25.730Z,62.66
2019-05-13T01:37:13.275Z,62.53
2019-05-13T01:39:43.600Z,62.53
2019-05-13T01:42:29.507Z,62.75
2019-05-13T01:44:57.527Z,63.05
2019-05-13T01:47:44.364Z,63.59
2019-05-13T01:53:00.031Z,63.38
2019-05-13T01:55:46.459Z,63.45
2019-05-13T01:58:14.704Z,63.45
2019-05-13T02:00:55.852Z,63.50
2019-05-13T02:03:33.896Z,63.67
2019-05-13T02:06:03.823Z,63.67
2019-05-13T02:08:33.668Z,63.61
2019-05-13T02:11:20.132Z,63.71
2019-05-13T02:14:06.576Z,64.27
2019-05-13T02:16:53.614Z,64.57
2019-05-13T02:22:14.950Z,64.35
2019-05-13T02:24:44.510Z,64.28
2019-05-13T02:27:34.470Z,64.96
2019-05-13T02:30:21.756Z,64.64
2019-05-13T02:33:08.465Z,65.07
2019-05-13T02:35:54.873Z,64.92
2019-05-13T02:38:42.747Z,64.87
2019-05-13T02:43:45.528Z,65.12
2019-05-13T02:46:13.988Z,65.16
2019-05-13T02:48:42.620Z,65.27
2019-05-13T02:51:12.541Z,65.27
2019-05-13T02:53:59.297Z,65.00
2019-05-13T02:56:45.658Z,64.90
2019-05-13T02:59:33.717Z,64.83
2019-05-13T03:04:53.241Z,64.97
2019-05-13T03:07:42.669Z,65.37
2019-05-13T03:10:32.894Z,65.30
2019-05-13T03:12:59.782Z,65.87
2019-05-13T03:20:52.975Z,65.65
2019-05-13T03:23:22.752Z,65.65
2019-05-13T03:25:49.512Z,66.22
2019-05-13T03:28:36.222Z,65.59
2019-05-13T03:34:14.968Z,65.52
2019-05-13T03:36:44.217Z,65.52
2019-05-13T03:39:27.105Z,66.44
2019-05-13T03:45:03.077Z,65.57
2019-05-13T03:50:16.085Z,65.72
2019-05-13T03:58:08.634Z,65.97
2019-05-13T04:00:55.040Z,65.87
2019-05-13T04:03:44.071Z,65.75
2019-05-13T04:06:13.566Z,65.75
2019-05-13T04:09:19.532Z,65.67
2019-05-13T04:11:47.480Z,65.39
2019-05-13T04:17:23.979Z,65.17
2019-05-13T04:20:12.356Z,65.25
2019-05-13T04:22:38.219Z,65.25
2019-05-13T04:25:24.924Z,65.06
2019-05-13T04:28:13.350Z,64.93
2019-05-13T04:31:02.441Z,65.00
2019-05-13T04:33:47.782Z,64.73
2019-05-13T04:44:13.101Z,64.09
2019-05-13T04:46:43.405Z,63.57
2019-05-13T04:49:32.317Z,63.57
2019-05-13T04:51:58.492Z,63.36
2019-05-13T04:54:44.913Z,62.96
2019-05-13T04:57:12.571Z,62.68
2019-05-13T04:59:58.968Z,62.49
2019-05-13T05:02:36.578Z,62.49
2019-05-13T05:05:14.677Z,62.06
2019-05-13T05:07:42.297Z,61.85
2019-05-13T05:10:22.218Z,61.62
2019-05-13T05:12:42.525Z,61.42
2019-05-13T05:15:28.579Z,61.10
2019-05-13T05:17:56.201Z,61.10
2019-05-13T05:20:23.914Z,60.95
2019-05-13T05:23:11.174Z,60.87
2019-05-13T05:28:44.767Z,60.74
2019-05-13T05:31:12.411Z,60.62
2019-05-13T05:33:58.808Z,60.44
2019-05-13T05:39:18.298Z,59.46
2019-05-13T05:41:46.031Z,59.46
2019-05-13T05:44:13.626Z,59.28
2019-05-13T05:46:42.730Z,59.28
2019-05-13T05:49:12.684Z,59.40
2019-05-13T05:51:41.896Z,59.01
2019-05-13T05:54:12.167Z,58.43
2019-05-13T05:56:45.143Z,57.87
2019-05-13T05:59:15.194Z,57.87
2019-05-13T06:01:43.171Z,57.70
2019-05-13T06:04:12.699Z,56.83
2019-05-13T06:06:41.520Z,56.83
2019-05-13T06:09:12.341Z,56.62
2019-05-13T06:11:41.737Z,55.96
2019-05-13T06:14:11.293Z,55.96
2019-05-13T06:16:38.900Z,55.70
2019-05-13T06:19:06.544Z,55.48
2019-05-13T06:21:34.146Z,55.10
2019-05-13T06:24:02.866Z,54.54
2019-05-13T06:26:31.373Z,54.45
2019-05-13T06:29:02.804Z,54.45
2019-05-13T06:31:32.288Z,55.03
2019-05-13T06:34:01.907Z,54.83
2019-05-13T06:36:31.456Z,54.42
2019-05-13T06:38:58.487Z,54.79
2019-05-13T06:41:26.094Z,54.79
2019-05-13T06:43:53.996Z,54.43
2019-05-13T06:46:21.935Z,54.25
2019-05-13T06:48:51.939Z,54.25
2019-05-13T06:51:18.920Z,54.11
2019-05-13T06:53:46.541Z,53.91
2019-05-13T06:56:14.522Z,53.66
2019-05-13T06:58:42.096Z,53.52
2019-05-13T07:01:11.550Z,53.26
2019-05-13T07:03:41.835Z,53.26
2019-05-13T07:06:12.358Z,53.18
2019-05-13T07:08:42.044Z,53.18
2019-05-13T07:11:20.449Z,53.43
2019-05-13T07:13:39.322Z,53.58
2019-05-13T07:16:06.962Z,53.41
2019-05-13T07:18:35.152Z,53.41
2019-05-13T07:21:02.745Z,53.58
2019-05-13T07:23:31.855Z,53.87
2019-05-13T07:26:01.677Z,54.10
2019-05-13T07:28:32.480Z,54.07
2019-05-13T07:31:02.162Z,53.79
2019-05-13T07:33:32.566Z,53.79
2019-05-13T07:36:02.774Z,53.78
2019-05-13T07:38:32.381Z,53.75
2019-05-13T07:41:03.119Z,53.78
2019-05-13T07:43:42.489Z,53.81
2019-05-13T07:46:09.140Z,53.87
2019-05-13T07:48:37.124Z,53.83
2019-05-13T07:51:05.181Z,53.54
2019-05-13T07:53:32.913Z,53.64
2019-05-13T07:56:02.575Z,53.64
2019-05-13T07:58:34.389Z,53.53
2019-05-13T08:01:02.224Z,53.35
2019-05-13T08:03:31.544Z,53.19
2019-05-13T08:06:01.976Z,53.19
2019-05-13T08:08:32.195Z,53.10
2019-05-13T08:11:01.181Z,52.98
2019-05-13T08:13:28.387Z,52.86
2019-05-13T08:15:56.059Z,52.89
2019-05-13T08:18:23.943Z,52.74
2019-05-13T08:20:52.433Z,52.74
2019-05-13T08:23:21.671Z,52.54
2019-05-13T08:25:51.622Z,52.40
2019-05-13T08:28:19.258Z,52.28
2019-05-13T08:30:51.649Z,52.28
2019-05-13T08:33:22.465Z,52.17
2019-05-13T08:35:56.499Z,51.52
2019-05-13T08:38:22.994Z,51.52
2019-05-13T08:40:51.262Z,51.54
2019-05-13T08:43:18.910Z,51.53
2019-05-13T08:45:46.507Z,51.38
2019-05-13T08:48:17.196Z,51.29
2019-05-13T08:50:47.429Z,51.15
2019-05-13T08:53:15.014Z,50.92
2019-05-13T08:55:43.157Z,50.82
2019-05-13T08:58:12.542Z,50.82
2019-05-13T09:00:41.444Z,50.65
2019-05-13T09:03:12.034Z,50.65
2019-05-13T09:05:41.342Z,50.30
2019-05-13T09:08:08.291Z,50.19
2019-05-13T09:10:36.136Z,50.03
2019-05-13T09:13:03.792Z,49.70
2019-05-13T09:15:34.013Z,49.18
2019-05-13T09:18:03.935Z,49.18
2019-05-13T09:20:32.321Z,48.87
2019-05-13T09:23:02.071Z,48.47
2019-05-13T09:25:31.864Z,48.20
2019-05-13T09:27:58.767Z,47.66
2019-05-13T09:30:27.358Z,47.66
2019-05-13T09:32:55.426Z,47.24
2019-05-13T09:35:23.028Z,47.24
2019-05-13T09:37:51.571Z,47.02
2019-05-13T09:40:22.216Z,46.60
2019-05-13T09:42:52.083Z,45.77
2019-05-13T09:45:18.086Z,45.77
2019-05-13T09:47:45.987Z,45.11
2019-05-13T09:50:28.597Z,45.11
2019-05-13T09:52:43.346Z,44.34
2019-05-13T09:55:26.577Z,43.65
2019-05-13T09:57:48.061Z,43.37
2019-05-13T10:00:21.973Z,43.37
2019-05-13T10:02:56.785Z,42.34
2019-05-13T10:05:24.725Z,42.34
2019-05-13T10:07:58.824Z,41.39
2019-05-13T10:10:26.415Z,40.97
2019-05-13T10:13:08.021Z,39.49
2019-05-13T10:15:24.918Z,39.49
2019-05-13T10:17:52.726Z,38.99
2019-05-13T10:20:22.689Z,39.01
2019-05-13T10:22:52.505Z,39.01
2019-05-13T10:25:19.534Z,38.64
2019-05-13T10:27:49.084Z,38.17
2019-05-13T10:30:16.737Z,37.79
2019-05-13T10:32:46.165Z,37.18
2019-05-13T10:35:22.807Z,37.18
2019-05-13T10:37:52.338Z,36.68
2019-05-13T10:40:23.006Z,36.37
2019-05-13T10:42:52.367Z,36.33
2019-05-13T10:45:23.131Z,35.50
2019-05-13T10:47:52.049Z,35.50
2019-05-13T10:50:27.431Z,35.32
2019-05-13T10:52:52.160Z,34.40
2019-05-13T10:55:36.436Z,34.40
2019-05-13T10:58:09.209Z,34.38
2019-05-13T11:00:37.086Z,34.08
2019-05-13T11:03:05.060Z,33.89
2019-05-13T11:05:34.852Z,33.49
2019-05-13T11:08:04.831Z,33.28
2019-05-13T11:10:32.772Z,33.09
2019-05-13T11:13:01.573Z,32.32
2019-05-13T11:15:32.723Z,32.32
2019-05-13T11:18:03.068Z,31.67
2019-05-13T11:20:32.553Z,31.53
2019-05-13T11:23:02.313Z,31.25
2019-05-13T11:25:32.408Z,30.43
2019-05-13T11:28:02.189Z,30.43
2019-05-13T11:30:31.941Z,30.46
2019-05-13T11:33:02.284Z,30.36
2019-05-13T11:35:28.467Z,29.90
2019-05-13T11:37:56.056Z,29.90
2019-05-13T11:40:23.667Z,29.69
2019-05-13T11:42:52.649Z,29.26
2019-05-13T11:45:22.358Z,29.05
2019-05-13T11:47:51.978Z,29.26
2019-05-13T11:50:21.572Z,29.16
2019-05-13T11:52:52.142Z,29.17
2019-05-13T11:55:17.900Z,28.83
2019-05-13T11:57:47.733Z,28.59
2019-05-13T12:00:15.397Z,28.44
2019-05-13T12:02:50.988Z,27.92
2019-05-13T12:05:18.422Z,28.13
2019-05-13T12:07:47.968Z,27.74
2019-05-13T12:10:15.500Z,27.33
2019-05-13T12:12:45.103Z,27.65
2019-05-13T12:15:44.533Z,27.60
2019-05-13T12:17:42.915Z,27.38
2019-05-13T12:20:12.183Z,27.43
2019-05-13T12:22:42.453Z,27.11
2019-05-13T12:25:09.174Z,26.97
2019-05-13T12:27:41.922Z,27.07
2019-05-13T12:30:09.147Z,26.94
2019-05-13T12:32:36.837Z,26.84
2019-05-13T12:35:07.565Z,26.52
2019-05-13T12:37:36.216Z,26.39
2019-05-13T12:40:03.854Z,26.38
2019-05-13T12:42:33.841Z,26.04
2019-05-13T12:45:09.774Z,26.28
2019-05-13T12:47:30.633Z,26.17
2019-05-13T12:49:58.489Z,25.95
2019-05-13T12:52:32.301Z,26.20
2019-05-13T12:55:02.951Z,26.18
2019-05-13T12:57:28.805Z,26.12
2019-05-13T12:59:56.454Z,26.12
2019-05-13T13:02:32.434Z,25.24
2019-05-13T13:05:14.124Z,25.24
2019-05-13T13:07:37.522Z,25.32
2019-05-13T13:10:02.056Z,24.70
2019-05-13T13:14:59.150Z,24.89
2019-05-13T13:17:30.471Z,24.94
2019-05-13T13:20:06.118Z,25.06
2019-05-13T13:22:28.085Z,25.06
2019-05-13T13:24:57.484Z,24.67
2019-05-13T13:27:57.750Z,24.71
2019-05-13T13:30:02.742Z,24.63
2019-05-13T13:32:25.070Z,24.64
2019-05-13T13:34:54.636Z,24.61
2019-05-13T13:37:24.859Z,24.15
2019-05-13T13:39:54.977Z,24.15
2019-05-13T13:42:21.896Z,23.98
2019-05-13T13:44:53.921Z,24.05
2019-05-13T13:47:24.089Z,23.96
2019-05-13T13:49:53.285Z,23.69
2019-05-13T13:52:22.734Z,23.24
2019-05-13T13:55:02.686Z,23.07
2019-05-13T13:57:25.569Z,23.27
2019-05-13T14:00:16.171Z,23.33
2019-05-13T14:02:23.937Z,23.30
2019-05-13T14:04:53.620Z,23.20
2019-05-13T14:07:13.386Z,24.70
2019-05-13T14:07:27.960Z,23.16
2019-05-13T14:09:51.502Z,22.63
2019-05-13T14:12:19.147Z,22.63
2019-05-13T14:14:52.078Z,23.01
2019-05-13T14:17:16.347Z,22.87
2019-05-13T14:19:45.814Z,22.65
2019-05-13T14:22:14.014Z,22.30
2019-05-13T14:24:43.835Z,22.30
2019-05-13T14:27:12.192Z,21.96
2019-05-13T14:29:49.157Z,22.61
2019-05-13T14:32:12.434Z,22.61
2019-05-13T14:34:42.079Z,23.00
2019-05-13T14:37:11.655Z,23.00
2019-05-13T14:39:41.172Z,22.41
2019-05-13T14:42:11.596Z,22.36
2019-05-13T14:44:39.353Z,22.28
2019-05-13T14:47:08.145Z,22.17
2019-05-13T14:49:35.611Z,22.17
2019-05-13T14:52:04.616Z,22.06
2019-05-13T14:54:32.148Z,21.95
2019-05-13T14:57:02.161Z,21.77
2019-05-13T14:59:35.591Z,21.67
2019-05-13T15:02:03.234Z,21.54
2019-05-13T15:04:32.937Z,21.80
2019-05-13T15:07:00.872Z,21.80
2019-05-13T15:09:28.652Z,21.85
2019-05-13T15:11:56.308Z,21.93
2019-05-13T15:14:24.280Z,22.18
2019-05-13T15:17:02.465Z,22.36
2019-05-13T15:19:23.978Z,22.46
2019-05-13T15:21:53.836Z,22.76
2019-05-13T15:24:21.629Z,23.06
2019-05-13T15:26:51.553Z,23.18
2019-05-13T15:29:19.175Z,23.28
2019-05-13T15:31:52.806Z,23.21
2019-05-13T15:34:20.435Z,23.23
2019-05-13T15:36:50.907Z,23.30
2019-05-13T15:39:17.681Z,23.28
2019-05-13T15:41:45.426Z,23.09
2019-05-13T15:44:13.267Z,22.89
2019-05-13T15:46:41.704Z,22.58
2019-05-13T15:49:09.554Z,22.24
2019-05-13T15:51:42.027Z,22.05
2019-05-13T15:54:15.126Z,21.82
2019-05-13T15:56:39.594Z,21.77
2019-05-13T15:59:09.548Z,21.86
2019-05-13T16:01:42.544Z,21.40
2019-05-13T16:04:13.486Z,21.40
2019-05-13T16:06:41.926Z,21.69
2019-05-13T16:09:11.756Z,21.42
2019-05-13T16:11:41.246Z,21.42
2019-05-13T16:14:08.519Z,21.46
2019-05-13T16:16:36.129Z,21.46
2019-05-13T16:19:03.722Z,21.37
2019-05-13T16:21:32.110Z,21.37
2019-05-13T16:24:04.982Z,21.85
2019-05-13T16:26:32.541Z,21.88
2019-05-13T16:29:03.416Z,21.96
2019-05-13T16:31:36.150Z,22.16
2019-05-13T16:34:03.764Z,22.67
2019-05-13T16:36:31.663Z,23.98
2019-05-13T16:39:01.979Z,25.45
2019-05-13T16:41:31.605Z,26.71
2019-05-13T16:43:59.231Z,28.73
2019-05-13T16:46:31.420Z,28.73
2019-05-13T16:49:01.180Z,29.39
2019-05-13T16:51:28.239Z,29.85
2019-05-13T16:53:55.885Z,30.25
2019-05-13T16:56:27.926Z,30.25
2019-05-13T16:58:53.099Z,30.81
2019-05-13T17:01:21.954Z,30.99
2019-05-13T17:03:51.543Z,30.99
2019-05-13T17:06:25.446Z,31.31
2019-05-13T17:08:56.200Z,31.43
2019-05-13T17:11:26.572Z,31.44
2019-05-13T17:13:58.994Z,31.50
2019-05-13T17:16:27.923Z,31.59
2019-05-13T17:19:01.247Z,31.67
2019-05-13T17:21:27.434Z,31.72
2019-05-13T17:24:01.365Z,31.56
2019-05-13T17:26:28.470Z,31.56
2019-05-13T17:29:01.380Z,31.92
2019-05-13T17:31:27.581Z,31.97
2019-05-13T17:34:01.311Z,32.16
2019-05-13T17:36:28.391Z,32.16
2019-05-13T17:39:02.016Z,32.10
2019-05-13T17:41:29.334Z,32.17
2019-05-13T17:43:58.812Z,32.36
2019-05-13T17:46:27.743Z,32.44
2019-05-13T17:48:55.324Z,32.69
2019-05-13T17:51:23.292Z,32.41
2019-05-13T17:53:52.106Z,32.41
2019-05-13T17:56:21.615Z,32.55
2019-05-13T17:58:49.305Z,32.60
2019-05-13T18:01:16.909Z,32.69
2019-05-13T18:03:44.540Z,32.69
2019-05-13T18:06:12.544Z,32.92
2019-05-13T18:08:42.902Z,32.98
2019-05-13T18:11:11.406Z,33.07
2019-05-13T18:13:43.700Z,33.14
2019-05-13T18:16:13.374Z,33.36
2019-05-13T18:18:46.943Z,33.36
2019-05-13T18:21:11.925Z,33.41
2019-05-13T18:23:41.441Z,33.49
2019-05-13T18:26:08.963Z,33.56
2019-05-13T18:28:38.880Z,33.67
2019-05-13T18:31:06.517Z,33.75
2019-05-13T18:33:34.196Z,33.89
2019-05-13T18:36:22.330Z,33.99
2019-05-13T18:41:46.609Z,34.21
2019-05-13T18:47:07.584Z,34.64
2019-05-13T18:49:35.193Z,34.57
2019-05-13T18:52:22.307Z,34.71
2019-05-13T18:54:51.393Z,34.82
2019-05-13T18:57:51.805Z,34.94
2019-05-13T19:03:15.165Z,35.19
2019-05-13T19:05:43.090Z,35.35
2019-05-13T19:08:42.893Z,35.52
2019-05-13T19:11:01.182Z,35.66
2019-05-13T19:13:48.429Z,35.85
2019-05-13T19:16:16.024Z,35.96
2019-05-13T19:18:44.588Z,36.09
2019-05-13T19:21:12.152Z,36.22
2019-05-13T19:23:41.902Z,36.22
2019-05-13T19:26:11.279Z,36.39
2019-05-13T19:28:38.956Z,36.52
2019-05-13T19:31:08.635Z,37.03
2019-05-13T19:33:36.557Z,37.03
2019-05-13T19:38:57.065Z,37.11
2019-05-13T19:44:16.592Z,37.10
2019-05-13T19:46:44.288Z,37.22
2019-05-13T19:55:08.463Z,37.46
2019-05-13T19:58:06.851Z,37.76
2019-05-13T20:03:31.877Z,37.72
2019-05-13T20:06:21.290Z,38.11
2019-05-13T20:09:02.019Z,38.11
2019-05-13T20:11:18.368Z,38.26
2019-05-13T20:19:50.265Z,38.45
2019-05-13T20:22:31.395Z,38.45
2019-05-13T20:25:17.758Z,39.00
2019-05-13T20:27:45.508Z,39.00
2019-05-13T20:33:39.856Z,38.75
2019-05-13T20:36:12.241Z,38.75
2019-05-13T20:38:40.084Z,39.35
2019-05-13T20:49:37.375Z,40.15
2019-05-13T20:52:05.021Z,40.15
2019-05-13T20:54:32.793Z,40.09
2019-05-13T20:57:21.555Z,40.09
2019-05-13T20:59:48.455Z,40.12
2019-05-13T21:02:34.922Z,40.24
2019-05-13T21:05:21.870Z,40.31
2019-05-13T21:18:56.313Z,40.71
2019-05-13T21:21:45.573Z,40.97
2019-05-13T21:24:32.072Z,40.97
2019-05-13T21:27:03.424Z,41.13
2019-05-13T21:29:51.797Z,41.42
2019-05-13T21:32:21.201Z,41.42
2019-05-13T21:35:07.277Z,41.81
2019-05-13T21:37:34.921Z,41.54
2019-05-13T21:40:02.605Z,41.54
2019-05-13T21:42:49.051Z,42.11
2019-05-13T21:45:35.517Z,42.08
2019-05-13T21:48:21.998Z,42.08
2019-05-13T21:50:51.620Z,41.85
2019-05-13T21:53:38.381Z,41.97
2019-05-13T21:56:06.105Z,41.97
2019-05-13T22:01:38.982Z,42.52
2019-05-13T22:04:12.113Z,42.52
2019-05-13T22:06:39.205Z,42.43
2019-05-13T22:09:25.701Z,42.36
2019-05-13T22:12:12.120Z,42.65
2019-05-13T22:15:00.638Z,43.19
2019-05-13T22:17:27.836Z,43.19
2019-05-13T22:20:14.259Z,43.03
2019-05-13T22:25:15.298Z,43.29
2019-05-13T22:28:01.794Z,43.45
2019-05-13T22:30:33.361Z,43.76
2019-05-13T22:33:17.575Z,43.76
2019-05-13T22:35:45.375Z,44.15
2019-05-13T22:41:18.138Z,44.36
2019-05-13T22:43:35.573Z,43.91
2019-05-13T22:46:21.957Z,44.55
2019-05-13T22:48:51.249Z,44.55
2019-05-13T22:51:37.782Z,44.51
2019-05-13T22:54:07.887Z,44.61
2019-05-13T22:56:54.324Z,44.76
2019-05-13T22:59:41.617Z,44.86
2019-05-13T23:02:28.949Z,45.03
2019-05-13T23:05:17.560Z,44.97
2019-05-13T23:08:03.955Z,45.11
2019-05-13T23:10:51.492Z,45.49
2019-05-13T23:18:59.581Z,45.67
2019-05-13T23:21:46.037Z,45.73
2019-05-13T23:24:32.752Z,45.58
2019-05-13T23:27:21.841Z,45.62
2019-05-13T23:30:07.575Z,45.62
2019-05-13T23:32:35.176Z,46.07
2019-05-13T23:35:21.820Z,45.88
2019-05-13T23:38:08.112Z,46.47
2019-05-13T23:40:35.847Z,46.47
2019-05-13T23:43:22.256Z,46.31
2019-05-13T23:45:51.116Z,46.22
2019-05-13T23:51:05.827Z,46.47
2019-05-13T23:53:33.453Z,46.19
2019-05-13T23:56:21.795Z,46.41
2019-05-13T23:58:52.089Z,46.41
